Time;durP1;ratioP1;P1;durP2;ratioP2;P2;SDS_P1;SDS_P2;PMS_P1;PMS_P2;Temp;Humidity;BMP_temperature;BMP_pressure;BME280_temperature;BME280_humidity;BME280_pressure;Samples;Min_cycle;Max_cycle;Signal;HPM_P1;HPM_P2
2021/12/23 00:02:02;;;;;;;82.50;51.08;;;;;;;-1.99;77.66;100940.40;3057200;77;21070;-76
2021/12/23 00:06:09;;;;;;;74.27;46.80;;;;;;;-2.06;77.73;100925.77;3057078;77;20979;-77
2021/12/23 00:10:14;;;;;;;;;;;;;;;-2.12;77.67;100933.72;3059645;77;21064;-73
2021/12/23 00:14:20;;;;;;;95.25;53.85;;;;;;;-2.19;78.12;100922.55;3046878;77;20127;-77
2021/12/23 00:27:05;;;;;;;98.50;47.95;;;;;;;-2.40;79.51;100912.05;3106218;76;20999;-77
2021/12/23 00:31:10;;;;;;;72.62;37.88;;;;;;;-2.41;79.63;100898.18;3081219;76;21056;-76
2021/12/23 00:35:13;;;;;;;76.50;44.53;;;;;;;-2.54;79.99;100892.34;3057115;77;21015;-76
2021/12/23 00:39:17;;;;;;;75.57;42.95;;;;;;;-2.63;80.33;100887.27;3056052;77;21058;-77
2021/12/23 00:43:22;;;;;;;;;;;;;;;-2.67;80.41;100886.45;3058452;77;21038;-76
2021/12/23 00:47:24;;;;;;;64.95;39.18;;;;;;;-2.69;80.90;100889.53;3037648;76;20155;-76
2021/12/23 00:51:26;;;;;;;59.05;36.20;;;;;;;-2.73;80.72;100882.66;3018177;78;21026;-76
2021/12/23 00:55:30;;;;;;;70.42;35.75;;;;;;;-2.66;80.28;100879.05;3018780;78;21588;-75
2021/12/23 00:59:32;;;;;;;68.80;36.48;;;;;;;-2.58;79.84;100876.31;3019423;77;21029;-76
2021/12/23 01:03:35;;;;;;;78.22;43.75;;;;;;;-2.53;79.56;100874.52;3018773;78;21049;-75
2021/12/23 01:07:36;;;;;;;99.20;52.70;;;;;;;-2.45;79.37;100866.56;3028447;77;21073;-72
2021/12/23 01:11:38;;;;;;;71.15;38.98;;;;;;;-2.44;79.52;100866.52;3064619;77;20971;-76
2021/12/23 01:16:00;;;;;;;48.78;28.10;;;;;;;-2.39;79.40;100859.05;3063851;77;20959;-78
2021/12/23 01:19:56;;;;;;;55.10;31.62;;;;;;;-2.34;79.73;100852.02;3063910;77;20967;-74
2021/12/23 01:23:58;;;;;;;38.67;20.82;;;;;;;-2.13;79.65;100845.98;3063980;77;21062;-71
2021/12/23 01:28:00;;;;;;;24.00;15.08;;;;;;;-2.03;79.25;100842.28;3063421;77;21673;-76
2021/12/23 01:32:06;;;;;;;21.93;13.93;;;;;;;-1.92;79.11;100836.41;3063947;77;21026;-69
2021/12/23 01:36:12;;;;;;;40.38;17.23;;;;;;;-1.78;78.78;100824.36;3075476;77;21009;-75
2021/12/23 01:40:19;;;;;;;;;;;;;;;-1.56;78.62;100817.82;3078275;77;21006;-76
2021/12/23 01:44:25;;;;;;;22.50;13.38;;;;;;;-1.34;77.97;100812.51;3075708;77;20116;-75
2021/12/23 01:48:28;;;;;;;24.27;12.10;;;;;;;-1.16;77.35;100815.57;3075289;77;21040;-77
2021/12/23 01:52:34;;;;;;;18.50;13.38;;;;;;;-1.03;77.26;100803.91;3075239;76;20982;-76
2021/12/23 01:56:42;;;;;;;;;;;;;;;-0.89;75.93;100794.87;3021303;77;21046;-72
2021/12/23 02:00:47;;;;;;;24.55;16.30;;;;;;;-0.88;74.43;100799.19;3064427;77;20150;-77
2021/12/23 02:04:52;;;;;;;17.07;11.20;;;;;;;-0.76;75.30;100789.73;3064647;77;21065;-76
2021/12/23 02:08:55;;;;;;;21.55;12.03;;;;;;;-0.76;74.08;100767.97;3063759;76;21542;-77
2021/12/23 02:12:58;;;;;;;21.90;13.08;;;;;;;-0.76;74.08;100767.97;3063121;77;21545;-75
2021/12/23 02:16:59;;;;;;;22.67;13.15;;;;;;;-0.76;73.56;100763.61;3063093;77;20996;-77
2021/12/23 02:21:05;;;;;;;22.55;10.90;;;;;;;-0.75;73.92;100754.88;3007301;77;20989;-77
2021/12/23 02:25:09;;;;;;;18.17;10.87;;;;;;;-0.89;73.76;100746.55;3001733;79;21052;-74
2021/12/23 02:29:12;;;;;;;28.27;11.85;;;;;;;-0.89;73.83;100749.16;2909063;81;21120;-75
2021/12/23 02:33:15;;;;;;;22.90;14.75;;;;;;;-0.78;73.84;100741.90;2909035;81;21029;-75
2021/12/23 02:37:18;;;;;;;26.60;12.98;;;;;;;-0.80;73.40;100728.00;2919235;80;21080;-76
2021/12/23 02:41:20;;;;;;;25.23;15.88;;;;;;;-0.80;73.40;100728.00;2960920;80;21554;-76
2021/12/23 02:45:21;;;;;;;26.65;15.20;;;;;;;-0.67;73.03;100714.60;2961238;80;21053;-77
2021/12/23 02:49:26;;;;;;;26.93;16.20;;;;;;;-0.67;73.03;100714.60;2961210;80;21068;-75
2021/12/23 02:53:30;;;;;;;25.60;15.83;;;;;;;-0.71;72.70;100716.44;2961289;80;21566;-75
2021/12/23 02:57:37;;;;;;;22.32;14.18;;;;;;;-0.66;72.46;100712.39;2960603;80;21001;-77
2021/12/23 03:01:45;;;;;;;28.35;15.20;;;;;;;-0.66;72.46;100690.19;2961140;80;21013;-76
2021/12/23 03:05:54;;;;;;;25.85;14.93;;;;;;;-0.67;72.80;100696.31;2961288;79;21356;-72
2021/12/23 03:09:56;;;;;;;22.35;14.70;;;;;;;-0.67;72.80;100696.31;2958034;80;21105;-76
2021/12/23 03:13:59;;;;;;;26.97;16.00;;;;;;;-0.72;73.72;100685.55;3006067;79;21493;-77
2021/12/23 03:18:00;;;;;;;28.17;15.80;;;;;;;-0.74;73.92;100674.72;3014755;79;20924;-76
2021/12/23 03:22:03;;;;;;;19.92;14.47;;;;;;;-0.79;73.79;100660.94;3014818;79;21025;-76
2021/12/23 03:26:05;;;;;;;24.27;15.38;;;;;;;-1.07;73.73;100636.45;3014848;79;20979;-75
2021/12/23 03:30:08;;;;;;;19.73;14.45;;;;;;;-1.07;73.73;100636.45;3014906;79;21042;-77
2021/12/23 03:34:11;;;;;;;26.27;16.40;;;;;;;-1.03;73.87;100643.30;3015129;79;20999;-76
2021/12/23 03:38:12;;;;;;;23.35;15.50;;;;;;;-1.13;74.08;100643.59;3014761;79;21007;-75
2021/12/23 03:42:14;;;;;;;25.72;15.93;;;;;;;-1.27;74.82;100638.77;3063737;77;21056;-75
2021/12/23 03:46:15;;;;;;;22.42;14.93;;;;;;;-1.26;75.40;100637.86;3063753;77;21504;-75
2021/12/23 03:50:21;;;;;;;25.00;15.53;;;;;;;-1.25;74.97;100634.35;3063614;77;21028;-76
2021/12/23 03:54:25;;;;;;;22.10;14.60;;;;;;;-1.18;74.44;100617.61;3064208;77;21000;-76
2021/12/23 03:58:26;;;;;;;21.15;13.45;;;;;;;-1.13;74.33;100616.19;3005793;77;21058;-75
2021/12/23 04:02:28;;;;;;;22.90;14.00;;;;;;;-1.20;74.11;100575.91;2972224;79;21003;-78
2021/12/23 04:06:29;;;;;;;22.15;13.20;;;;;;;-1.01;73.68;100580.13;3014982;78;20970;-70
2021/12/23 04:10:50;;;;;;;26.33;13.28;;;;;;;-1.01;73.68;100580.13;3027394;77;21019;-75
2021/12/23 04:14:53;;;;;;;27.98;15.43;;;;;;;-1.01;73.42;100576.68;2956503;80;21724;-76
2021/12/23 04:18:55;;;;;;;21.45;14.80;;;;;;;-1.18;74.08;100575.84;2956408;80;21045;-78
2021/12/23 04:22:57;;;;;;;18.67;13.28;;;;;;;-1.21;74.00;100573.32;2956312;80;21681;-72
2021/12/23 04:26:58;;;;;;;23.25;15.53;;;;;;;-1.18;73.93;100577.14;2955686;80;21062;-74
2021/12/23 04:31:02;;;;;;;25.75;13.80;;;;;;;-1.27;74.08;100568.28;2954761;80;21038;-74
2021/12/23 04:35:07;;;;;;;29.95;17.52;;;;;;;-1.30;74.16;100562.25;2954519;80;20995;-74
2021/12/23 04:39:08;;;;;;;30.00;18.10;;;;;;;-1.37;74.83;100551.59;2955162;80;21015;-73
2021/12/23 04:43:10;;;;;;;27.17;14.58;;;;;;;-1.44;75.33;100550.03;2955109;80;20955;-75
2021/12/23 04:47:12;;;;;;;24.82;15.55;;;;;;;-1.47;75.01;100544.47;2955031;80;21038;-74
2021/12/23 04:51:15;;;;;;;25.60;16.57;;;;;;;-1.46;75.26;100535.73;2954516;80;21082;-74
2021/12/23 04:55:18;;;;;;;20.45;13.95;;;;;;;-1.40;75.08;100521.64;2955147;80;21586;-75
2021/12/23 04:59:21;;;;;;;22.52;14.73;;;;;;;-1.41;75.18;100513.41;2954330;80;21476;-75
2021/12/23 05:03:25;;;;;;;24.90;14.03;;;;;;;-1.28;74.71;100510.45;2942547;80;21575;-77
2021/12/23 05:07:26;;;;;;;17.48;12.15;;;;;;;-1.22;74.46;100509.83;2955540;80;20984;-75
2021/12/23 05:11:29;;;;;;;25.40;17.48;;;;;;;-1.26;74.34;100509.52;2912167;80;21058;-76
2021/12/23 05:15:31;;;;;;;35.78;21.85;;;;;;;-1.18;73.91;100489.69;2923357;80;21061;-77
2021/12/23 05:19:33;;;;;;;25.48;15.32;;;;;;;-1.18;73.91;100489.69;2955257;80;21067;-75
2021/12/23 05:23:36;;;;;;;16.15;11.68;;;;;;;-1.16;73.99;100491.83;2948959;80;21050;-74
2021/12/23 05:27:38;;;;;;;18.60;11.00;;;;;;;-1.17;73.75;100479.21;2923206;80;21026;-76
2021/12/23 05:31:42;;;;;;;20.70;13.78;;;;;;;-1.22;74.17;100475.02;2953672;80;21066;-74
2021/12/23 05:35:47;;;;;;;22.07;13.70;;;;;;;-1.29;74.19;100479.56;2938243;80;21034;-73
2021/12/23 05:39:49;;;;;;;15.70;11.88;;;;;;;-1.41;74.90;100446.86;2904588;82;21069;-74
2021/12/23 05:43:58;;;;;;;21.85;13.50;;;;;;;-1.41;74.90;100446.86;2904102;80;21058;-74
2021/12/23 05:48:00;;;;;;;25.23;17.82;;;;;;;-1.23;74.70;100453.73;2917537;80;21050;-74
2021/12/23 05:52:03;;;;;;;29.42;18.42;;;;;;;-1.24;74.17;100422.01;2934486;80;21039;-74
2021/12/23 05:56:05;;;;;;;22.35;14.25;;;;;;;-1.24;74.17;100422.01;2920867;80;21593;-75
2021/12/23 06:00:24;;;;;;;15.93;10.18;;;;;;;-1.12;74.29;100433.83;2904898;80;21090;-71
2021/12/23 06:04:27;;;;;;;39.25;20.75;;;;;;;-1.09;74.08;100432.42;2940613;80;21697;-73
2021/12/23 06:08:29;;;;;;;36.85;20.90;;;;;;;-1.07;73.44;100430.17;2956293;80;21022;-75
2021/12/23 06:12:30;;;;;;;38.00;20.15;;;;;;;-0.99;74.06;100416.89;2942381;80;20998;-74
2021/12/23 06:16:32;;;;;;;22.27;14.65;;;;;;;-0.88;73.23;100416.54;2909210;80;21065;-74
2021/12/23 06:20:34;;;;;;;23.27;13.53;;;;;;;-0.89;73.87;100416.14;2909127;81;21022;-74
2021/12/23 06:24:36;;;;;;;19.00;12.05;;;;;;;-0.98;73.38;100412.50;2908976;81;21050;-74
2021/12/23 06:28:38;;;;;;;22.35;10.68;;;;;;;-1.09;74.08;100415.02;2908688;81;20970;-74
2021/12/23 06:32:39;;;;;;;18.30;11.57;;;;;;;-1.17;74.72;100403.50;2908279;81;21022;-69
2021/12/23 06:36:44;;;;;;;19.10;12.98;;;;;;;-1.20;74.45;100398.38;2906828;81;20979;-74
2021/12/23 06:40:46;;;;;;;19.25;13.00;;;;;;;-1.22;74.71;100400.19;2903063;81;21537;-73
2021/12/23 06:44:47;;;;;;;22.00;13.70;;;;;;;-1.24;75.21;100391.55;2889938;81;21053;-73
2021/12/23 06:48:49;;;;;;;18.60;11.12;;;;;;;-1.16;75.21;100391.32;2893103;81;21037;-74
2021/12/23 06:52:51;;;;;;;18.98;14.05;;;;;;;-1.12;74.58;100388.14;2897670;81;21574;-73
2021/12/23 06:56:54;;;;;;;20.72;13.78;;;;;;;-0.97;74.16;100381.59;2907724;81;21613;-74
2021/12/23 07:00:55;;;;;;;30.88;16.90;;;;;;;-0.92;73.51;100375.77;2902530;81;21002;-74
2021/12/23 07:04:57;;;;;;;31.12;19.37;;;;;;;-0.89;73.39;100373.05;2869906;81;21061;-74
2021/12/23 07:09:01;;;;;;;28.25;19.30;;;;;;;-0.75;73.46;100368.66;2883982;81;21014;-74
2021/12/23 07:13:05;;;;;;;30.30;17.15;;;;;;;-0.69;72.85;100360.61;2906808;80;21002;-73
2021/12/23 07:17:08;;;;;;;26.60;16.82;;;;;;;-0.54;72.88;100368.41;2870278;81;21017;-74
2021/12/23 07:21:10;;;;;;;24.82;19.65;;;;;;;-0.50;73.12;100364.77;2874143;81;21030;-74
2021/12/23 07:25:13;;;;;;;24.37;18.65;;;;;;;-0.45;73.00;100340.62;2878524;81;21018;-74
2021/12/23 07:29:14;;;;;;;33.78;17.23;;;;;;;-0.39;73.08;100336.08;2908698;81;20964;-73
2021/12/23 07:33:16;;;;;;;30.48;16.15;;;;;;;-0.31;73.06;100344.52;2887280;81;21014;-72
2021/12/23 07:37:21;;;;;;;27.35;15.83;;;;;;;-0.31;73.06;100344.52;2858883;82;21568;-74
2021/12/23 07:41:26;;;;;;;26.10;16.05;;;;;;;-0.20;72.91;100337.12;2898059;81;21041;-74
2021/12/23 07:45:30;;;;;;;29.82;19.55;;;;;;;-0.13;72.64;100342.16;2858670;82;21049;-74
2021/12/23 07:49:32;;;;;;;36.65;19.27;;;;;;;-0.07;72.45;100338.87;2907313;81;21069;-74
2021/12/23 07:53:33;;;;;;;30.00;19.57;;;;;;;0.06;72.61;100344.49;2883379;81;21037;-74
2021/12/23 07:57:36;;;;;;;32.55;20.70;;;;;;;0.10;72.24;100335.61;2876134;81;21021;-74
2021/12/23 08:01:38;;;;;;;29.85;17.90;;;;;;;0.11;72.53;100317.70;2872287;81;21065;-74
2021/12/23 08:05:41;;;;;;;37.48;21.60;;;;;;;0.11;72.61;100311.63;2877588;81;21081;-74
2021/12/23 08:09:43;;;;;;;30.40;19.15;;;;;;;0.09;73.14;100301.65;2859283;83;21045;-74
2021/12/23 08:13:45;;;;;;;31.40;19.57;;;;;;;0.16;72.93;100307.50;2859587;81;21097;-73
2021/12/23 08:17:49;;;;;;;56.15;33.70;;;;;;;0.30;72.74;100306.53;2892349;81;21069;-74
2021/12/23 08:21:53;;;;;;;51.63;33.47;;;;;;;0.35;72.10;100304.58;2891101;81;21021;-74
2021/12/23 08:26:02;;;;;;;47.00;27.60;;;;;;;0.43;72.42;100297.73;2900492;81;21105;-75
2021/12/23 08:30:00;;;;;;;53.17;31.87;;;;;;;0.48;71.71;100285.31;2908691;81;21045;-74
2021/12/23 08:34:02;;;;;;;54.20;31.37;;;;;;;0.52;71.67;100274.27;2909416;81;21025;-74
2021/12/23 08:38:06;;;;;;;49.38;28.75;;;;;;;0.45;71.45;100268.89;2909249;81;21033;-73
2021/12/23 08:42:10;;;;;;;45.30;24.18;;;;;;;0.52;71.34;100251.58;2909055;81;21362;-74
2021/12/23 08:46:13;;;;;;;46.13;25.62;;;;;;;0.55;72.05;100250.58;2898630;80;21013;-74
2021/12/23 08:50:19;;;;;;;41.98;25.43;;;;;;;0.63;72.15;100247.66;2937492;80;21535;-74
2021/12/23 08:54:21;;;;;;;;;;;;;;;0.70;72.20;100229.02;2911635;81;21077;-74
2021/12/23 08:58:22;;;;;;;31.20;22.22;;;;;;;0.72;72.18;100234.20;2908479;81;20159;-74
2021/12/23 09:02:25;;;;;;;30.30;19.70;;;;;;;0.82;71.85;100234.66;2866275;81;20990;-73
2021/12/23 09:06:30;;;;;;;29.27;21.90;;;;;;;0.85;71.37;100239.30;2859480;83;21045;-73
2021/12/23 09:10:35;;;;;;;33.60;18.45;;;;;;;0.93;71.65;100221.95;2859946;83;21037;-74
2021/12/23 09:14:41;;;;;;;27.40;18.73;;;;;;;0.97;71.32;100223.51;2860332;81;21096;-74
2021/12/23 09:18:47;;;;;;;41.13;22.85;;;;;;;0.98;71.18;100205.59;2859879;83;21073;-74
2021/12/23 09:22:54;;;;;;;35.23;23.67;;;;;;;1.03;71.48;100182.27;2859100;83;21108;-74
2021/12/23 09:27:10;;;;;;;32.80;22.75;;;;;;;1.11;71.35;100186.70;2859068;83;21022;-74
2021/12/23 09:35:28;;;;;;;40.15;23.73;;;;;;;1.18;70.97;100186.84;2884160;80;20142;-74
2021/12/23 09:39:31;;;;;;;29.52;18.05;;;;;;;1.26;71.28;100172.92;2878206;82;20963;-74
2021/12/23 09:43:36;;;;;;;35.40;20.43;;;;;;;1.17;70.05;100165.45;2877584;82;21042;-72
2021/12/23 09:47:41;;;;;;;31.68;22.52;;;;;;;1.24;70.82;100157.73;2878210;82;21026;-72
2021/12/23 09:51:47;;;;;;;33.30;23.18;;;;;;;1.20;70.64;100150.94;2877944;82;21078;-73
2021/12/23 09:55:52;;;;;;;32.17;20.20;;;;;;;1.18;70.99;100134.44;2878608;82;20991;-73
2021/12/23 09:59:55;;;;;;;29.50;21.40;;;;;;;1.18;70.90;100122.64;2878775;82;21324;-74
2021/12/23 10:03:57;;;;;;;29.95;17.45;;;;;;;1.24;71.35;100116.25;2914541;80;21036;-73
2021/12/23 10:07:59;;;;;;;32.83;20.52;;;;;;;1.30;70.81;100113.38;2962047;80;21047;-73
2021/12/23 10:37:26;;;;;;;30.82;20.97;;;;;;;1.82;70.71;100060.22;2971297;80;21047;-73
2021/12/23 10:41:29;;;;;;;31.70;21.75;;;;;;;1.92;70.81;100045.32;2969041;80;21004;-73
2021/12/23 10:45:54;;;;;;;28.10;23.12;;;;;;;2.05;71.21;100038.55;2868937;82;21017;-73
2021/12/23 10:49:58;;;;;;;46.55;24.32;;;;;;;2.18;70.71;100022.19;2866174;83;21089;-72
2021/12/23 10:58:02;;;;;;;43.75;26.42;;;;;;;2.41;69.66;100005.23;2883062;81;21144;-75
2021/12/23 11:02:20;;;;;;;30.05;22.45;;;;;;;2.36;69.65;99992.81;2866864;83;21600;-75
2021/12/23 11:06:30;;;;;;;34.88;24.37;;;;;;;2.37;69.07;99980.94;2867001;83;21014;-76
2021/12/23 11:28:02;;;;;;;47.27;29.27;;;;;;;2.38;69.50;99944.56;2904736;82;21606;-74
2021/12/23 11:40:27;;;;;;;53.52;30.23;;;;;;;2.37;70.58;99910.05;2904744;82;21606;-75
2021/12/23 11:44:16;;;;;;;42.75;25.23;;;;;;;2.34;70.08;99901.48;2902139;81;21037;-75
2021/12/23 11:48:18;;;;;;;41.68;26.62;;;;;;;2.29;70.28;99905.66;2905339;82;21085;-74
2021/12/23 11:52:21;;;;;;;39.15;25.40;;;;;;;2.35;69.59;99896.14;2905949;81;21014;-74
2021/12/23 11:56:26;;;;;;;35.60;23.70;;;;;;;2.37;69.08;99889.05;2845857;83;21074;-74
2021/12/23 12:00:41;;;;;;;38.50;24.00;;;;;;;2.43;69.41;99879.52;2820204;84;21566;-72
2021/12/23 12:04:37;;;;;;;47.93;27.90;;;;;;;2.40;69.08;99866.57;2843771;82;21092;-74
2021/12/23 12:08:40;;;;;;;35.25;25.05;;;;;;;2.49;69.87;99853.86;2820085;84;21053;-74
2021/12/23 12:13:12;;;;;;;36.28;21.97;;;;;;;2.52;70.22;99841.87;2820283;84;21303;-74
2021/12/23 12:17:33;;;;;;;37.90;26.12;;;;;;;2.43;69.64;99830.95;2902587;82;20963;-74
2021/12/23 12:21:35;;;;;;;41.40;24.30;;;;;;;2.47;69.93;99827.70;2903896;82;21108;-74
2021/12/23 12:25:44;;;;;;;29.60;18.80;;;;;;;2.47;69.74;99822.45;2876884;81;21558;-74
2021/12/23 12:29:50;;;;;;;29.00;20.85;;;;;;;2.45;70.17;99827.39;2887309;82;21034;-73
2021/12/23 12:34:10;;;;;;;37.83;24.27;;;;;;;2.45;70.87;99815.10;2868753;82;21587;-75
2021/12/23 12:38:24;;;;;;;40.52;22.35;;;;;;;2.52;70.88;99807.28;2903286;81;21026;-73
2021/12/23 12:42:34;;;;;;;30.60;22.07;;;;;;;2.57;71.03;99799.98;2887047;82;20990;-74
2021/12/23 12:46:52;;;;;;;28.05;20.68;;;;;;;2.63;71.05;99787.43;2859474;82;21081;-75
2021/12/23 12:50:52;;;;;;;34.65;22.85;;;;;;;2.62;70.60;99773.47;2892683;82;21344;-74
2021/12/23 12:55:11;;;;;;;37.88;22.17;;;;;;;2.69;69.83;99773.97;2884130;80;21510;-75
2021/12/23 12:59:15;;;;;;;34.98;22.58;;;;;;;2.67;69.80;99779.78;2880141;82;21538;-74
2021/12/23 13:03:20;;;;;;;32.65;25.08;;;;;;;2.74;70.25;99759.23;2889529;81;21132;-74
2021/12/23 13:07:34;;;;;;;39.63;26.33;;;;;;;2.66;69.89;99742.16;2892177;80;21069;-75
2021/12/23 13:11:36;;;;;;;47.13;28.60;;;;;;;2.65;69.46;99743.09;2881002;82;21018;-72
2021/12/23 13:15:41;;;;;;;42.65;29.25;;;;;;;2.66;69.17;99735.59;2902615;81;21745;-75
2021/12/23 13:19:43;;;;;;;37.42;24.02;;;;;;;2.61;69.60;99727.14;2883913;80;21042;-75
2021/12/23 13:23:46;;;;;;;36.80;24.55;;;;;;;2.61;69.71;99726.28;2886264;80;21089;-74
2021/12/23 13:27:48;;;;;;;34.88;26.68;;;;;;;2.56;69.25;99712.13;2894366;80;20943;-75
2021/12/23 13:31:51;;;;;;;42.25;24.65;;;;;;;2.54;69.66;99710.02;2885241;81;21222;-75
2021/12/23 13:35:55;;;;;;;47.23;31.00;;;;;;;2.51;69.54;99704.95;2909451;81;21018;-77
2021/12/23 13:39:56;;;;;;;46.65;32.23;;;;;;;2.45;68.93;99694.33;2906813;81;21634;-74
2021/12/23 13:44:21;;;;;;;66.28;42.50;;;;;;;2.44;69.67;99690.02;2923316;81;21402;-75
2021/12/23 13:48:23;;;;;;;61.08;39.75;;;;;;;2.41;69.82;99673.14;2883219;80;21081;-75
2021/12/23 13:52:38;;;;;;;51.45;31.95;;;;;;;2.32;68.80;99672.37;2922209;80;20974;-74
2021/12/23 13:56:48;;;;;;;50.38;28.87;;;;;;;2.37;68.79;99669.00;2902853;80;21066;-72
2021/12/23 14:00:50;;;;;;;45.75;31.02;;;;;;;2.34;68.25;99652.95;2886197;81;21014;-73
2021/12/23 14:05:04;;;;;;;36.42;22.22;;;;;;;2.34;68.42;99645.08;2903775;81;21065;-74
2021/12/23 14:09:06;;;;;;;39.18;24.27;;;;;;;2.26;67.01;99628.94;2896179;81;21026;-74
2021/12/23 14:13:11;;;;;;;50.85;25.32;;;;;;;2.23;67.21;99614.69;2858249;83;21144;-74
2021/12/23 14:17:26;;;;;;;43.50;28.50;;;;;;;2.26;67.36;99603.55;2882829;80;20993;-74
2021/12/23 14:25:58;;;;;;;43.13;28.67;;;;;;;2.29;68.59;99584.14;2951435;80;21539;-76
2021/12/23 14:30:02;;;;;;;42.40;28.73;;;;;;;2.21;69.07;99569.33;2952200;80;21054;-74
2021/12/23 14:34:12;;;;;;;41.63;26.95;;;;;;;2.18;69.69;99565.09;2952056;80;21030;-74
2021/12/23 14:38:14;;;;;;;50.83;29.48;;;;;;;2.23;68.29;99564.83;2951519;80;21031;-75
2021/12/23 14:42:20;;;;;;;47.98;32.10;;;;;;;2.17;69.28;99556.02;2944522;80;21081;-75
2021/12/23 14:46:32;;;;;;;46.98;29.45;;;;;;;2.16;69.21;99538.09;2856433;83;21512;-70
2021/12/23 14:50:50;;;;;;;41.40;25.80;;;;;;;2.13;69.71;99518.12;2860839;82;21073;-72
2021/12/23 14:54:53;;;;;;;35.65;21.20;;;;;;;2.12;69.95;99484.95;2856087;82;21054;-68
2021/12/23 14:59:07;;;;;;;45.88;29.32;;;;;;;1.99;71.20;99461.71;2893826;82;21100;-72
2021/12/23 15:03:19;;;;;;;47.40;31.75;;;;;;;2.06;71.93;99454.29;2903431;82;21078;-72
2021/12/23 15:07:23;;;;;;;34.80;24.05;;;;;;;2.07;72.17;99460.77;2901047;82;21039;-73
2021/12/23 15:11:32;;;;;;;56.42;29.82;;;;;;;2.14;72.41;99467.33;2842983;83;21054;-75
2021/12/23 15:15:34;;;;;;;52.60;30.15;;;;;;;2.20;72.65;99465.30;2891990;81;21034;-70
2021/12/23 15:19:39;;;;;;;42.27;26.48;;;;;;;2.35;72.75;99467.45;2939742;80;21081;-68
2021/12/23 15:23:47;;;;;;;48.13;29.80;;;;;;;2.24;72.58;99462.86;2933236;79;21070;-69
2021/12/23 15:27:48;;;;;;;38.98;26.75;;;;;;;2.26;72.20;99455.73;2938095;80;21092;-69
2021/12/23 15:32:10;;;;;;;50.38;29.32;;;;;;;2.30;71.86;99442.79;2949371;80;21685;-71
2021/12/23 15:36:11;;;;;;;43.65;27.35;;;;;;;2.36;71.85;99447.69;2958861;80;21066;-69
2021/12/23 15:40:20;;;;;;;40.33;23.87;;;;;;;2.35;71.59;99439.41;2959632;80;21038;-70
2021/12/23 15:44:23;;;;;;;32.42;24.52;;;;;;;2.26;71.54;99434.28;2957264;80;21583;-71
2021/12/23 15:48:25;;;;;;;40.70;27.35;;;;;;;2.23;71.33;99420.50;2957354;79;21038;-68
2021/12/23 15:52:27;;;;;;;40.30;23.60;;;;;;;2.22;71.82;99424.06;2955347;80;21007;-76
2021/12/23 15:56:29;;;;;;;33.42;23.98;;;;;;;2.18;71.39;99436.51;2894627;82;21558;-72
2021/12/23 16:00:30;;;;;;;34.13;24.43;;;;;;;2.21;72.06;99428.94;2956976;80;21551;-71
2021/12/23 16:04:36;;;;;;;34.05;23.30;;;;;;;2.26;71.29;99424.23;2954595;80;21043;-71
2021/12/23 16:08:37;;;;;;;40.80;25.80;;;;;;;2.28;71.20;99410.09;2976848;79;21481;-70
2021/12/23 16:12:40;;;;;;;33.20;22.37;;;;;;;2.35;70.66;99418.41;2906804;82;21022;-75
2021/12/23 16:16:42;;;;;;;35.68;23.15;;;;;;;2.41;70.85;99418.51;2905963;81;21117;-70
2021/12/23 16:20:44;;;;;;;37.00;21.70;;;;;;;2.42;70.21;99416.25;2908555;82;21034;-72
2021/12/23 16:24:45;;;;;;;35.58;24.20;;;;;;;2.33;69.50;99429.96;2909301;82;21049;-72
2021/12/23 16:28:51;;;;;;;39.78;23.65;;;;;;;2.35;69.10;99432.02;2909623;82;20983;-73
2021/12/23 16:32:57;;;;;;;35.33;22.95;;;;;;;2.33;68.91;99426.84;2908081;82;21007;-72
2021/12/23 16:36:58;;;;;;;31.55;21.37;;;;;;;2.31;69.26;99414.30;2908746;82;20998;-71
2021/12/23 16:41:00;;;;;;;36.50;24.43;;;;;;;2.36;69.22;99399.13;2908463;82;21654;-72
2021/12/23 16:45:05;;;;;;;41.33;23.57;;;;;;;2.43;69.52;99404.81;2908450;82;21278;-71
2021/12/23 16:49:07;;;;;;;33.60;23.38;;;;;;;2.49;69.83;99408.84;2908456;82;21027;-70
2021/12/23 16:53:09;;;;;;;35.65;23.00;;;;;;;2.47;69.47;99393.66;2908455;82;21018;-71
2021/12/23 17:01:28;;;;;;;35.23;22.90;;;;;;;2.45;70.15;99384.56;2908239;82;21041;-74
2021/12/23 17:05:32;;;;;;;36.80;25.77;;;;;;;2.49;70.36;99374.72;2926233;80;21046;-73
2021/12/23 17:09:34;;;;;;;35.50;22.07;;;;;;;2.41;70.16;99377.36;2960164;80;21010;-72
2021/12/23 17:13:35;;;;;;;32.73;22.02;;;;;;;2.42;71.12;99379.50;2960164;80;21023;-71
2021/12/23 17:17:38;;;;;;;33.53;22.52;;;;;;;2.43;71.61;99361.50;2915100;80;21018;-73
2021/12/23 17:21:49;;;;;;;35.10;21.35;;;;;;;2.45;71.33;99374.55;2863154;83;21048;-70
2021/12/23 17:25:52;;;;;;;41.37;23.90;;;;;;;2.49;71.83;99393.09;2861244;83;21053;-78
2021/12/23 17:29:55;;;;;;;33.90;24.15;;;;;;;2.50;71.94;99395.64;2902764;81;20951;-77
2021/12/23 17:33:56;;;;;;;34.38;21.48;;;;;;;2.58;71.91;99384.66;2909570;81;20991;-77
2021/12/23 17:38:04;;;;;;;37.80;26.75;;;;;;;2.64;71.25;99373.75;2909041;81;21041;-74
2021/12/23 17:42:04;;;;;;;43.42;24.25;;;;;;;2.70;71.58;99368.10;2907639;81;21015;-80
2021/12/23 17:46:06;;;;;;;55.85;35.90;;;;;;;2.76;71.68;99345.03;2910085;81;21110;-75
2021/12/23 17:50:08;;;;;;;50.45;33.38;;;;;;;2.74;70.92;99331.98;2910409;81;21634;-80
2021/12/23 17:54:10;;;;;;;102.30;63.55;;;;;;;2.82;70.49;99315.73;2911996;80;21299;-75
2021/12/23 17:58:18;;;;;;;118.77;69.05;;;;;;;2.74;70.61;99319.31;2870701;81;21021;-79
2021/12/23 18:02:19;;;;;;;67.08;37.98;;;;;;;2.68;71.24;99303.02;2860512;83;21057;-74
2021/12/23 18:06:21;;;;;;;47.53;31.15;;;;;;;2.64;69.96;99317.75;2860051;82;21529;-73
2021/12/23 18:10:23;;;;;;;37.67;26.17;;;;;;;2.64;68.14;99310.73;2860324;83;21069;-74
2021/12/23 18:14:25;;;;;;;49.98;26.87;;;;;;;2.64;67.27;99288.41;2861504;83;21029;-77
2021/12/23 18:18:27;;;;;;;44.35;30.05;;;;;;;2.67;67.71;99286.89;2881399;81;20994;-77
2021/12/23 18:22:34;;;;;;;50.78;33.25;;;;;;;2.64;67.85;99284.47;2912159;81;20982;-77
2021/12/23 18:26:36;;;;;;;43.28;29.32;;;;;;;2.71;68.06;99279.67;2911901;81;21570;-70
2021/12/23 18:30:40;;;;;;;45.03;29.85;;;;;;;2.68;68.13;99270.19;2911160;81;21018;-76
2021/12/23 18:34:46;;;;;;;83.25;47.23;;;;;;;2.64;68.45;99267.41;2885758;81;21049;-76
2021/12/23 18:38:45;;;;;;;129.42;74.80;;;;;;;2.54;68.93;99251.41;2874811;81;21050;-75
2021/12/23 18:42:53;;;;;;;268.12;144.72;;;;;;;2.55;69.50;99245.67;2892906;81;21025;-74
2021/12/23 18:46:56;;;;;;;153.70;75.37;;;;;;;2.67;69.47;99236.17;2872470;81;20986;-72
2021/12/23 18:50:58;;;;;;;74.50;43.10;;;;;;;2.64;69.63;99221.45;2860759;82;21582;-73
2021/12/23 18:55:00;;;;;;;69.60;40.48;;;;;;;2.66;69.70;99222.19;2860824;83;20989;-74
2021/12/23 18:59:02;;;;;;;52.40;32.67;;;;;;;2.65;69.37;99220.51;2861673;83;21053;-71
2021/12/23 19:03:11;;;;;;;53.23;32.70;;;;;;;2.65;69.17;99219.20;2861727;83;21022;-73
2021/12/23 19:07:07;;;;;;;43.78;29.98;;;;;;;2.63;69.38;99213.20;2862795;83;21061;-73
2021/12/23 19:11:13;;;;;;;47.13;29.50;;;;;;;2.69;69.84;99204.91;2887990;81;21054;-74
2021/12/23 19:15:16;;;;;;;50.27;29.23;;;;;;;2.77;69.91;99207.03;2909803;79;21006;-75
2021/12/23 19:19:18;;;;;;;45.45;28.55;;;;;;;2.80;70.80;99194.18;2879322;81;21065;-72
2021/12/23 19:23:19;;;;;;;43.17;29.65;;;;;;;2.76;71.56;99189.59;2859566;82;21049;-75
2021/12/23 19:27:21;;;;;;;46.30;28.30;;;;;;;2.78;72.71;99182.45;2859562;82;21034;-75
2021/12/23 19:31:24;;;;;;;40.45;26.62;;;;;;;2.60;74.03;99184.53;2861818;81;21086;-77
2021/12/23 19:35:26;;;;;;;54.83;33.28;;;;;;;2.46;76.32;99178.03;2884140;81;21049;-75
2021/12/23 19:39:28;;;;;;;49.50;32.88;;;;;;;2.32;78.26;99174.52;2883608;81;21054;-77
2021/12/23 19:43:31;;;;;;;50.70;28.62;;;;;;;2.16;79.94;99173.83;2877600;81;21006;-78
2021/12/23 19:47:36;;;;;;;51.20;29.67;;;;;;;1.96;81.35;99157.14;2897408;80;21019;-73
2021/12/23 19:51:37;;;;;;;54.60;31.93;;;;;;;1.91;82.54;99157.06;2915874;80;21057;-73
2021/12/23 19:55:39;;;;;;;46.53;30.35;;;;;;;1.82;83.26;99155.86;2908204;81;20990;-77
2021/12/23 19:59:44;;;;;;;52.00;36.05;;;;;;;1.73;83.96;99153.84;2907965;81;21602;-76
2021/12/23 20:03:46;;;;;;;55.33;37.53;;;;;;;1.69;84.75;99137.45;2907481;81;21033;-78